createdAt,value
2023-03-19T00:01:53.268Z,2.83
2023-03-19T00:04:41.788Z,2.57
2023-03-19T00:07:32.221Z,2.57
2023-03-19T00:10:20.574Z,2.77
2023-03-19T00:13:10.270Z,2.53
2023-03-19T00:16:00.110Z,2.00
2023-03-19T00:18:49.299Z,2.40
2023-03-19T00:21:37.877Z,2.53
2023-03-19T00:24:26.689Z,2.70
2023-03-19T00:27:15.092Z,3.07
2023-03-19T00:30:04.876Z,2.70
2023-03-19T00:32:55.125Z,2.67
2023-03-19T00:35:43.659Z,2.40
2023-03-19T00:38:32.062Z,2.27
2023-03-19T00:41:20.829Z,2.33
2023-03-19T00:44:09.212Z,2.60
2023-03-19T00:46:57.634Z,3.30
2023-03-19T00:49:47.398Z,2.20
2023-03-19T00:52:35.865Z,2.30
2023-03-19T00:55:25.669Z,2.20
2023-03-19T00:58:14.376Z,2.30
2023-03-19T01:01:03.606Z,2.67
2023-03-19T01:03:52.072Z,2.60
2023-03-19T01:06:41.907Z,2.30
2023-03-19T01:09:30.400Z,2.30
2023-03-19T01:12:19.488Z,2.33
2023-03-19T01:15:09.129Z,2.30
2023-03-19T01:17:57.523Z,2.60
2023-03-19T01:20:45.907Z,2.53
2023-03-19T01:23:36.179Z,2.80
2023-03-19T01:26:24.555Z,2.50
2023-03-19T01:29:17.152Z,3.23
2023-03-19T01:32:06.114Z,2.10
2023-03-19T01:35:20.981Z,2.70
2023-03-19T01:38:11.128Z,2.30
2023-03-19T01:41:01.640Z,1.93
2023-03-19T01:43:51.270Z,2.30
2023-03-19T01:46:59.096Z,2.30
2023-03-19T01:49:57.640Z,2.30
2023-03-19T01:52:46.184Z,2.83
2023-03-19T01:56:13.384Z,2.20
2023-03-19T01:59:37.175Z,2.87
2023-03-19T02:02:33.247Z,2.00
2023-03-19T02:05:29.184Z,3.00
2023-03-19T02:08:24.887Z,2.30
2023-03-19T02:11:15.850Z,2.23
2023-03-19T02:14:04.477Z,2.30
2023-03-19T02:16:53.104Z,1.77
2023-03-19T02:19:48.415Z,2.80
2023-03-19T02:22:37.934Z,2.47
2023-03-19T02:25:29.650Z,1.97
2023-03-19T02:28:20.643Z,2.20
2023-03-19T02:31:11.000Z,2.20
2023-03-19T02:34:04.154Z,2.50
2023-03-19T02:36:54.911Z,2.70
2023-03-19T02:39:50.844Z,2.30
2023-03-19T02:42:39.259Z,2.20
2023-03-19T02:45:30.666Z,2.60
2023-03-19T02:48:19.059Z,2.20
2023-03-19T02:51:08.670Z,3.00
2023-03-19T02:53:57.121Z,2.27
2023-03-19T02:56:46.226Z,2.07
2023-03-19T02:59:34.782Z,2.10
2023-03-19T03:02:24.694Z,2.70
2023-03-19T03:05:13.558Z,1.70
2023-03-19T03:08:03.241Z,2.77
2023-03-19T03:10:51.702Z,3.00
2023-03-19T03:13:40.244Z,1.97
2023-03-19T03:16:28.821Z,2.03
2023-03-19T03:19:19.405Z,2.20
2023-03-19T03:22:09.155Z,2.30
2023-03-19T03:24:57.613Z,2.70
2023-03-19T03:27:46.254Z,2.47
2023-03-19T03:30:34.996Z,2.30
2023-03-19T03:33:23.555Z,2.73
2023-03-19T03:36:14.128Z,2.30
2023-03-19T03:39:02.514Z,2.43
2023-03-19T03:41:51.646Z,2.60
2023-03-19T03:44:40.674Z,2.20
2023-03-19T03:47:29.172Z,2.40
2023-03-19T03:50:17.623Z,1.90
2023-03-19T03:53:09.582Z,2.40
2023-03-19T03:55:58.107Z,2.90
2023-03-19T03:58:48.324Z,2.20
2023-03-19T04:01:37.115Z,2.70
2023-03-19T04:04:26.621Z,2.17
2023-03-19T04:07:15.193Z,1.93
2023-03-19T04:10:11.910Z,2.20
2023-03-19T04:13:00.446Z,2.37
2023-03-19T04:15:50.964Z,2.23
2023-03-19T04:18:39.648Z,2.43
2023-03-19T04:21:29.757Z,2.10
2023-03-19T04:24:18.328Z,2.47
2023-03-19T04:27:08.670Z,2.13
2023-03-19T04:29:58.474Z,2.30
2023-03-19T04:32:47.651Z,2.20
2023-03-19T04:35:36.992Z,2.63
2023-03-19T04:38:27.733Z,2.60
2023-03-19T04:41:16.974Z,2.30
2023-03-19T04:44:19.408Z,2.33
2023-03-19T04:47:08.107Z,2.63
2023-03-19T04:50:10.682Z,2.43
2023-03-19T04:52:59.086Z,2.60
2023-03-19T04:55:47.953Z,2.80
2023-03-19T04:58:38.929Z,2.63
2023-03-19T05:01:28.769Z,3.00
2023-03-19T05:04:21.308Z,3.43
2023-03-19T05:07:10.865Z,3.60
2023-03-19T05:09:59.594Z,3.50
2023-03-19T05:12:47.939Z,3.40
2023-03-19T05:15:36.547Z,3.00
2023-03-19T05:18:29.690Z,2.57
2023-03-19T05:21:18.470Z,3.07
2023-03-19T05:24:07.523Z,2.40
2023-03-19T05:26:58.251Z,2.77
2023-03-19T05:29:58.294Z,2.97
2023-03-19T05:33:22.540Z,2.43
2023-03-19T05:36:13.772Z,3.10
2023-03-19T05:39:13.879Z,3.10
2023-03-19T05:42:04.518Z,2.40
2023-03-19T05:44:53.075Z,2.30
2023-03-19T05:47:49.226Z,2.57
2023-03-19T05:50:40.081Z,2.70
2023-03-19T05:53:43.315Z,2.27
2023-03-19T05:56:50.366Z,2.47
2023-03-19T06:00:01.759Z,2.73
2023-03-19T06:02:55.979Z,2.50
2023-03-19T06:06:22.812Z,2.87
2023-03-19T06:09:15.383Z,2.70
2023-03-19T06:12:07.079Z,2.87
2023-03-19T06:15:15.477Z,2.40
2023-03-19T06:18:07.405Z,2.90
2023-03-19T06:20:56.484Z,2.70
2023-03-19T06:23:45.077Z,3.00
2023-03-19T06:26:38.823Z,2.80
2023-03-19T06:29:33.941Z,3.30
2023-03-19T06:32:35.058Z,2.83
2023-03-19T06:35:29.119Z,3.27
2023-03-19T06:38:17.575Z,2.40
2023-03-19T06:41:06.213Z,3.20
2023-03-19T06:43:56.187Z,3.10
2023-03-19T06:46:44.561Z,2.63
2023-03-19T06:49:32.934Z,2.57
2023-03-19T06:52:21.290Z,2.70
2023-03-19T06:55:10.197Z,3.33
2023-03-19T06:57:58.546Z,2.70
2023-03-19T07:00:48.306Z,3.27
2023-03-19T07:03:36.666Z,2.90
2023-03-19T07:06:24.970Z,2.90
2023-03-19T07:09:13.995Z,2.80
2023-03-19T07:12:02.317Z,2.43
2023-03-19T07:14:51.173Z,2.83
2023-03-19T07:17:40.979Z,2.90
2023-03-19T07:20:29.877Z,3.13
2023-03-19T07:23:18.824Z,3.00
2023-03-19T07:26:07.202Z,3.03
2023-03-19T07:28:55.630Z,2.90
2023-03-19T07:31:44.054Z,2.97
2023-03-19T07:34:33.835Z,2.70
2023-03-19T07:37:22.662Z,2.90
2023-03-19T07:40:12.652Z,3.70
2023-03-19T07:43:00.984Z,3.13
2023-03-19T07:45:49.435Z,3.37
2023-03-19T07:48:38.182Z,3.50
2023-03-19T07:51:27.972Z,2.97
2023-03-19T07:54:16.452Z,2.73
2023-03-19T07:57:04.927Z,4.00
2023-03-19T07:59:53.290Z,3.20
2023-03-19T08:02:42.847Z,3.23
2023-03-19T08:05:31.324Z,3.20
2023-03-19T08:08:21.122Z,3.03
2023-03-19T08:11:09.652Z,3.17
2023-03-19T08:13:58.081Z,2.60
2023-03-19T08:16:46.426Z,3.40
2023-03-19T08:19:34.741Z,2.60
2023-03-19T08:22:23.374Z,3.10
2023-03-19T08:25:13.633Z,2.47
2023-03-19T08:28:02.320Z,2.90
2023-03-19T08:30:50.639Z,3.00
2023-03-19T08:33:39.549Z,2.80
2023-03-19T08:36:28.171Z,2.57
2023-03-19T08:39:16.624Z,2.67
2023-03-19T08:42:06.622Z,2.80
2023-03-19T08:44:54.921Z,2.50
2023-03-19T08:47:43.941Z,3.23
2023-03-19T08:50:33.741Z,3.03
2023-03-19T08:53:22.252Z,2.73
2023-03-19T08:56:10.741Z,3.00
2023-03-19T08:59:00.453Z,2.60
2023-03-19T09:01:52.403Z,2.60
2023-03-19T09:04:41.984Z,2.63
2023-03-19T09:07:30.610Z,2.40
2023-03-19T09:10:19.245Z,2.10
2023-03-19T09:13:07.574Z,2.00
2023-03-19T09:15:57.371Z,2.17
2023-03-19T09:18:45.799Z,2.17
2023-03-19T09:21:34.178Z,2.20
2023-03-19T09:24:22.689Z,1.83
2023-03-19T09:27:11.101Z,1.80
2023-03-19T09:29:59.443Z,2.23
2023-03-19T09:32:49.253Z,2.00
2023-03-19T09:35:39.758Z,1.80
2023-03-19T09:38:28.489Z,1.73
2023-03-19T09:41:23.039Z,1.97
2023-03-19T09:44:14.315Z,1.60
2023-03-19T09:47:11.614Z,1.57
2023-03-19T09:50:04.365Z,1.60
2023-03-19T09:52:59.242Z,1.70
2023-03-19T09:55:50.012Z,1.47
2023-03-19T09:58:38.520Z,1.43
2023-03-19T10:01:28.821Z,1.43
2023-03-19T10:04:42.621Z,1.30
2023-03-19T10:07:43.151Z,1.37
2023-03-19T10:10:48.496Z,1.07
2023-03-19T10:13:46.385Z,1.27
2023-03-19T10:16:36.020Z,1.60
2023-03-19T10:19:28.220Z,1.47
2023-03-19T10:22:19.436Z,1.17
2023-03-19T10:25:12.197Z,1.30
2023-03-19T10:28:03.309Z,1.20
2023-03-19T10:30:58.288Z,1.30
2023-03-19T10:33:53.407Z,1.40
2023-03-19T10:36:41.798Z,1.40
2023-03-19T10:39:32.221Z,1.40
2023-03-19T10:42:33.375Z,1.20
2023-03-19T10:45:26.772Z,1.40
2023-03-19T10:48:17.958Z,1.30
2023-03-19T10:51:06.834Z,1.30
2023-03-19T10:53:56.923Z,1.33
2023-03-19T10:56:47.472Z,1.30
2023-03-19T10:59:38.864Z,1.23
2023-03-19T11:02:31.148Z,1.20
2023-03-19T11:05:29.864Z,1.40
2023-03-19T11:08:34.895Z,1.57
2023-03-19T11:11:26.382Z,1.20
2023-03-19T11:14:17.106Z,1.27
2023-03-19T11:17:16.073Z,1.10
2023-03-19T11:20:16.895Z,1.17
2023-03-19T11:23:12.108Z,1.27
2023-03-19T11:26:02.941Z,1.37
2023-03-19T11:28:52.256Z,1.13
2023-03-19T11:31:44.485Z,1.37
2023-03-19T11:34:37.459Z,1.27
2023-03-19T11:37:31.687Z,1.30
2023-03-19T11:40:25.240Z,1.33
2023-03-19T11:43:39.059Z,1.20
2023-03-19T11:46:46.243Z,1.30
2023-03-19T11:50:02.846Z,1.50
2023-03-19T11:53:15.824Z,1.27
2023-03-19T11:56:11.505Z,1.10
2023-03-19T11:59:18.176Z,1.40
2023-03-19T12:02:34.169Z,1.30
2023-03-19T12:05:26.855Z,1.00
2023-03-19T12:08:24.396Z,1.30
2023-03-19T12:11:19.142Z,1.03
2023-03-19T12:14:18.508Z,1.37
2023-03-19T12:17:19.174Z,1.20
2023-03-19T12:20:40.528Z,1.20
2023-03-19T12:23:37.627Z,1.10
2023-03-19T12:26:34.183Z,1.20
2023-03-19T12:29:25.834Z,1.10
2023-03-19T12:32:30.460Z,1.50
2023-03-19T12:35:20.944Z,1.20
2023-03-19T12:38:15.002Z,1.30
2023-03-19T12:41:07.750Z,1.20
2023-03-19T12:43:58.676Z,1.17
2023-03-19T12:46:51.163Z,1.40
2023-03-19T12:49:43.300Z,1.10
2023-03-19T12:52:36.805Z,1.20
2023-03-19T12:55:36.737Z,1.30
2023-03-19T12:58:31.312Z,1.00
2023-03-19T13:01:24.797Z,1.27
2023-03-19T13:04:15.527Z,1.17
2023-03-19T13:07:08.210Z,1.13
2023-03-19T13:10:00.672Z,1.00
2023-03-19T13:12:51.946Z,1.23
2023-03-19T13:15:42.468Z,1.20
2023-03-19T13:18:38.269Z,1.10
2023-03-19T13:21:30.273Z,1.27
2023-03-19T13:24:23.006Z,1.10
2023-03-19T13:27:16.276Z,1.07
2023-03-19T13:30:20.652Z,1.20
2023-03-19T13:33:15.584Z,1.20
2023-03-19T13:36:06.466Z,1.10
2023-03-19T13:38:55.208Z,1.20
2023-03-19T13:41:54.889Z,1.10
2023-03-19T13:44:50.176Z,1.40
2023-03-19T13:47:43.366Z,1.17
2023-03-19T13:50:34.270Z,1.10
2023-03-19T13:53:34.900Z,1.30
2023-03-19T13:56:29.902Z,1.60
2023-03-19T13:59:27.076Z,1.17
2023-03-19T14:02:50.722Z,1.17
2023-03-19T14:05:39.561Z,1.13
2023-03-19T14:08:31.547Z,1.10
2023-03-19T14:11:24.285Z,1.03
2023-03-19T14:14:16.185Z,1.30
2023-03-19T14:17:05.761Z,1.00
2023-03-19T14:19:55.805Z,1.10
2023-03-19T14:22:56.565Z,1.03
2023-03-19T14:25:58.016Z,1.17
2023-03-19T14:28:58.892Z,1.20
2023-03-19T14:31:50.201Z,1.07
2023-03-19T14:34:40.394Z,1.30
2023-03-19T14:37:36.374Z,1.20
2023-03-19T14:40:27.587Z,1.43
2023-03-19T14:43:19.271Z,1.13
2023-03-19T14:46:10.254Z,1.17
2023-03-19T14:49:29.197Z,1.10
2023-03-19T14:52:19.180Z,1.10
2023-03-19T14:55:12.622Z,1.20
2023-03-19T14:58:02.129Z,1.10
2023-03-19T15:00:52.051Z,1.27
2023-03-19T15:03:40.463Z,1.20
2023-03-19T15:06:32.794Z,1.10
2023-03-19T15:09:23.496Z,1.10
2023-03-19T15:12:31.290Z,1.43
2023-03-19T15:15:27.612Z,1.07
2023-03-19T15:18:16.749Z,1.17
2023-03-19T15:21:05.999Z,1.10
2023-03-19T15:23:54.393Z,1.10
2023-03-19T15:26:43.053Z,1.60
2023-03-19T15:29:33.674Z,1.20
2023-03-19T15:32:52.178Z,1.10
2023-03-19T15:35:44.214Z,1.20
2023-03-19T15:38:36.595Z,1.10
2023-03-19T15:41:26.613Z,1.10
2023-03-19T15:44:18.601Z,1.33
2023-03-19T15:47:10.449Z,1.10
2023-03-19T15:50:00.755Z,1.00
2023-03-19T15:52:52.567Z,1.10
2023-03-19T15:55:41.063Z,0.93
2023-03-19T15:58:31.388Z,0.90
2023-03-19T16:01:20.353Z,1.00
2023-03-19T16:04:16.284Z,1.10
2023-03-19T16:07:05.426Z,1.20
2023-03-19T16:09:53.848Z,1.30
2023-03-19T16:12:42.504Z,1.10
2023-03-19T16:15:35.398Z,1.50
2023-03-19T16:18:25.705Z,1.13
2023-03-19T16:21:18.709Z,1.10
2023-03-19T16:24:15.299Z,1.17
2023-03-19T16:27:05.204Z,1.00
2023-03-19T16:29:58.586Z,1.27
2023-03-19T16:32:47.069Z,1.00
2023-03-19T16:35:36.719Z,1.20
2023-03-19T16:38:28.369Z,1.27
2023-03-19T16:41:19.434Z,1.07
2023-03-19T16:44:17.367Z,1.10
2023-03-19T16:47:10.150Z,0.83
2023-03-19T16:49:58.535Z,1.10
2023-03-19T16:52:48.056Z,1.10
2023-03-19T16:55:38.321Z,1.30
2023-03-19T16:58:29.608Z,1.20
2023-03-19T17:01:20.034Z,1.00
2023-03-19T17:04:12.783Z,1.17
2023-03-19T17:07:01.201Z,1.03
2023-03-19T17:09:49.954Z,1.10
2023-03-19T17:12:39.738Z,1.30
2023-03-19T17:15:30.268Z,1.30
2023-03-19T17:18:21.481Z,1.30
2023-03-19T17:21:13.158Z,1.10
2023-03-19T17:24:05.428Z,1.17
2023-03-19T17:26:54.711Z,1.43
2023-03-19T17:29:44.415Z,1.30
2023-03-19T17:32:32.940Z,1.17
2023-03-19T17:35:22.876Z,1.10
2023-03-19T17:38:12.962Z,1.70
2023-03-19T17:41:01.650Z,1.40
2023-03-19T17:43:50.043Z,1.70
2023-03-19T17:46:41.800Z,1.60
2023-03-19T17:49:32.419Z,1.37
2023-03-19T17:52:21.286Z,1.60
2023-03-19T17:55:16.607Z,1.60
2023-03-19T17:58:05.148Z,1.50
2023-03-19T18:00:53.732Z,1.60
2023-03-19T18:03:43.864Z,1.80
2023-03-19T18:06:34.758Z,1.60
2023-03-19T18:09:24.845Z,1.57
2023-03-19T18:12:13.179Z,1.80
2023-03-19T18:15:01.597Z,1.53
2023-03-19T18:17:52.652Z,1.70
2023-03-19T18:20:42.514Z,1.50
2023-03-19T18:23:31.328Z,1.63
2023-03-19T18:26:19.771Z,1.90
2023-03-19T18:29:09.110Z,2.07
2023-03-19T18:32:03.009Z,2.27
2023-03-19T18:34:51.450Z,2.00
2023-03-19T18:37:41.181Z,2.30
2023-03-19T18:40:31.979Z,2.27
2023-03-19T18:43:20.915Z,2.30
2023-03-19T18:46:11.827Z,1.77
2023-03-19T18:49:01.843Z,2.53
2023-03-19T18:52:01.743Z,2.40
2023-03-19T18:54:52.596Z,1.87
2023-03-19T18:57:52.328Z,1.90
2023-03-19T19:00:41.377Z,1.80
2023-03-19T19:03:31.684Z,2.00
2023-03-19T19:06:24.800Z,2.07
2023-03-19T19:09:16.921Z,2.23
2023-03-19T19:12:09.475Z,2.30
2023-03-19T19:14:58.762Z,2.10
2023-03-19T19:17:47.945Z,2.07
2023-03-19T19:20:36.417Z,2.53
2023-03-19T19:23:27.252Z,2.27
2023-03-19T19:26:22.839Z,1.93
2023-03-19T19:29:18.732Z,2.30
2023-03-19T19:32:10.690Z,2.10
2023-03-19T19:34:59.049Z,1.73
2023-03-19T19:37:47.410Z,1.70
2023-03-19T19:40:36.078Z,2.10
2023-03-19T19:43:25.915Z,1.60
2023-03-19T19:46:17.527Z,1.47
2023-03-19T19:49:06.560Z,1.60
2023-03-19T19:51:54.879Z,1.97
2023-03-19T19:54:43.251Z,1.83
2023-03-19T19:57:31.574Z,1.63
2023-03-19T20:00:22.508Z,1.73
2023-03-19T20:03:20.978Z,1.77
2023-03-19T20:06:09.577Z,2.00
2023-03-19T20:08:57.907Z,2.17
2023-03-19T20:11:47.842Z,1.90
2023-03-19T20:14:36.842Z,1.73
2023-03-19T20:17:25.310Z,1.77
2023-03-19T20:20:25.691Z,1.50
2023-03-19T20:23:15.232Z,1.60
2023-03-19T20:26:03.707Z,1.80
2023-03-19T20:28:52.184Z,2.00
2023-03-19T20:31:40.490Z,1.90
2023-03-19T20:34:38.690Z,1.93
2023-03-19T20:37:29.270Z,1.70
2023-03-19T20:40:18.299Z,2.10
2023-03-19T20:43:07.713Z,1.80
2023-03-19T20:45:56.674Z,1.80
2023-03-19T20:48:45.057Z,1.60
2023-03-19T20:51:33.688Z,2.03
2023-03-19T20:54:23.748Z,1.60
2023-03-19T20:57:14.581Z,1.80
2023-03-19T21:00:04.328Z,2.10
2023-03-19T21:02:54.072Z,1.60
2023-03-19T21:05:42.608Z,1.70
2023-03-19T21:08:33.515Z,1.60
2023-03-19T21:11:25.004Z,1.70
2023-03-19T21:14:15.948Z,1.87
2023-03-19T21:17:04.811Z,1.87
2023-03-19T21:19:53.139Z,1.47
2023-03-19T21:22:41.917Z,1.70
2023-03-19T21:25:31.539Z,1.50
2023-03-19T21:28:26.496Z,1.50
2023-03-19T21:31:18.122Z,1.43
2023-03-19T21:34:07.008Z,1.30
2023-03-19T21:36:55.497Z,1.50
2023-03-19T21:39:43.858Z,1.40
2023-03-19T21:42:33.143Z,1.37
2023-03-19T21:45:27.508Z,1.80
2023-03-19T21:48:24.531Z,1.73
2023-03-19T21:51:14.441Z,1.33
2023-03-19T21:54:02.880Z,1.30
2023-03-19T21:56:51.580Z,1.10
2023-03-19T21:59:40.287Z,1.20
2023-03-19T22:02:43.645Z,1.20
2023-03-19T22:05:32.034Z,1.33
2023-03-19T22:08:21.607Z,1.30
2023-03-19T22:11:15.130Z,1.37
2023-03-19T22:14:06.545Z,1.10
2023-03-19T22:16:56.648Z,1.50
2023-03-19T22:19:46.606Z,1.10
2023-03-19T22:22:35.025Z,1.20
2023-03-19T22:25:23.829Z,1.10
2023-03-19T22:28:17.789Z,1.10
2023-03-19T22:31:06.888Z,1.10
2023-03-19T22:33:55.322Z,1.40
2023-03-19T22:36:45.317Z,1.20
2023-03-19T22:39:33.732Z,1.10
2023-03-19T22:42:22.409Z,1.50
2023-03-19T22:45:16.495Z,1.20
2023-03-19T22:48:05.395Z,1.30
2023-03-19T22:50:53.963Z,1.30
2023-03-19T22:53:43.720Z,1.40
2023-03-19T22:56:32.222Z,1.33
2023-03-19T22:59:20.824Z,1.40
2023-03-19T23:02:10.690Z,1.20
2023-03-19T23:04:59.038Z,1.50
2023-03-19T23:07:47.386Z,1.40
2023-03-19T23:10:37.331Z,1.30
2023-03-19T23:13:26.176Z,1.77
2023-03-19T23:16:20.886Z,1.27
2023-03-19T23:19:11.987Z,1.63
2023-03-19T23:22:02.523Z,1.47
2023-03-19T23:24:50.986Z,1.40
2023-03-19T23:27:40.686Z,1.57
2023-03-19T23:30:31.555Z,1.53
2023-03-19T23:33:21.027Z,1.70
2023-03-19T23:36:10.192Z,1.70
2023-03-19T23:38:59.343Z,1.67
2023-03-19T23:41:49.374Z,2.00
2023-03-19T23:44:39.242Z,1.80
2023-03-19T23:47:28.077Z,1.47
2023-03-19T23:50:16.769Z,1.93
2023-03-19T23:53:05.180Z,1.50
2023-03-19T23:55:56.943Z,1.80
2023-03-19T23:58:45.928Z,1.47
